Time;durP1;ratioP1;P1;durP2;ratioP2;P2;SDS_P1;SDS_P2;PMS_P1;PMS_P2;Temp;Humidity;BMP_temperature;BMP_pressure;BME280_temperature;BME280_humidity;BME280_pressure;Samples;Min_cycle;Max_cycle;Signal;HPM_P1;HPM_P2
2023/01/03 00:00:42;;;;;;;16.47;6.90;;;3.20;95.90;;;;;;5043259;28;20048;-81
2023/01/03 00:03:08;;;;;;;16.73;6.83;;;3.20;95.50;;;;;;5041037;28;20041;-81
2023/01/03 00:05:34;;;;;;;14.73;6.73;;;3.20;95.50;;;;;;5037612;28;20045;-81
2023/01/03 00:08:00;;;;;;;14.80;6.30;;;3.20;95.40;;;;;;5042818;28;20520;-80
2023/01/03 00:10:25;;;;;;;17.60;6.80;;;3.20;95.50;;;;;;5036638;28;20037;-83
2023/01/03 00:12:51;;;;;;;20.20;6.57;;;3.10;95.40;;;;;;5039604;28;20048;-81
2023/01/03 00:15:17;;;;;;;15.07;7.00;;;3.10;95.50;;;;;;5050084;28;20038;-82
2023/01/03 00:17:42;;;;;;;23.73;6.40;;;3.10;95.50;;;;;;5038578;28;20404;-81
2023/01/03 00:20:09;;;;;;;19.40;6.67;;;3.10;95.90;;;;;;5025700;28;20045;-84
2023/01/03 00:22:35;;;;;;;19.13;6.97;;;3.00;95.50;;;;;;5037686;28;20107;-83
2023/01/03 00:25:02;;;;;;;16.60;6.77;;;3.00;95.50;;;;;;5036984;28;20045;-83
2023/01/03 00:27:28;;;;;;;14.33;6.73;;;3.00;95.60;;;;;;5031417;28;20060;-81
2023/01/03 00:29:53;;;;;;;17.83;6.63;;;3.00;95.50;;;;;;5028909;28;20044;-82
2023/01/03 00:32:19;;;;;;;17.00;6.33;;;2.90;95.60;;;;;;5021125;28;20053;-83
2023/01/03 00:34:45;;;;;;;14.23;6.13;;;2.90;95.50;;;;;;5014602;28;20148;-85
2023/01/03 00:37:12;;;;;;;16.17;6.57;;;2.90;95.50;;;;;;5015103;28;20045;-87
2023/01/03 00:39:38;;;;;;;15.87;6.77;;;2.90;95.50;;;;;;5025031;28;20092;-84
2023/01/03 00:42:04;;;;;;;16.93;6.70;;;2.90;95.60;;;;;;5021451;28;20041;-82
2023/01/03 00:44:29;;;;;;;12.70;6.40;;;2.90;96.00;;;;;;5030182;28;20037;-81
2023/01/03 00:46:55;;;;;;;20.93;6.33;;;2.90;95.80;;;;;;5030921;28;20049;-82
2023/01/03 00:49:21;;;;;;;17.10;6.17;;;2.90;95.70;;;;;;5036357;28;20064;-81
2023/01/03 00:51:47;;;;;;;14.60;5.73;;;2.90;95.80;;;;;;5038967;28;20045;-81
2023/01/03 00:54:14;;;;;;;15.90;6.17;;;2.90;95.70;;;;;;5032972;28;20060;-82
2023/01/03 00:56:42;;;;;;;13.70;5.80;;;2.90;95.70;;;;;;5037494;28;20100;-81
2023/01/03 00:59:09;;;;;;;11.75;5.85;;;2.90;95.60;;;;;;5031398;28;20041;-86
2023/01/03 01:01:40;;;;;;;17.70;5.57;;;2.80;95.50;;;;;;5027092;28;20137;-81
2023/01/03 01:04:14;;;;;;;12.60;5.73;;;2.90;95.50;;;;;;5028159;28;20045;-81
2023/01/03 01:06:43;;;;;;;51.57;6.97;;;2.90;95.50;;;;;;5020856;28;20025;-82
2023/01/03 01:09:12;;;;;;;11.80;5.77;;;2.90;95.50;;;;;;5045231;28;20033;-81
2023/01/03 01:11:38;;;;;;;17.77;5.55;;;2.90;95.60;;;;;;5023114;28;20052;-81
2023/01/03 01:14:18;;;;;;;13.90;4.83;;;2.90;95.60;;;;;;5025429;28;20037;-85
2023/01/03 01:16:57;;;;;;;21.70;5.57;;;3.00;95.70;;;;;;5039125;28;20868;-82
2023/01/03 01:19:33;;;;;;;11.33;5.37;;;3.00;95.60;;;;;;5032794;28;20056;-83
2023/01/03 01:21:59;;;;;;;17.07;5.40;;;3.00;95.60;;;;;;5031199;28;20635;-84
2023/01/03 01:24:25;;;;;;;11.33;5.03;;;3.10;95.60;;;;;;5011364;28;20037;-88
2023/01/03 01:26:51;;;;;;;15.80;5.73;;;3.20;95.70;;;;;;5035854;28;20539;-83
2023/01/03 01:29:17;;;;;;;13.40;5.20;;;3.20;95.70;;;;;;5045249;28;20076;-87
2023/01/03 01:31:45;;;;;;;11.47;5.63;;;3.30;95.60;;;;;;5045195;28;20099;-82
2023/01/03 01:34:11;;;;;;;12.23;5.43;;;3.30;95.50;;;;;;5049638;28;20132;-82
2023/01/03 01:36:40;;;;;;;13.37;5.90;;;3.40;95.50;;;;;;5032310;28;20029;-82
2023/01/03 01:39:12;;;;;;;14.97;6.53;;;3.40;95.40;;;;;;5053885;28;20036;-81
2023/01/03 01:44:45;;;;;;;17.67;5.63;;;3.50;95.30;;;;;;5041190;28;20136;-82
2023/01/03 01:47:16;;;;;;;13.82;5.82;;;3.50;95.20;;;;;;5028974;28;20045;-87
2023/01/03 01:49:44;;;;;;;19.07;6.07;;;3.50;95.20;;;;;;5045701;28;20073;-86
2023/01/03 01:52:12;;;;;;;15.57;5.47;;;3.50;95.10;;;;;;5041563;28;20052;-82
2023/01/03 01:54:40;;;;;;;18.92;6.38;;;3.60;95.00;;;;;;5046769;28;20048;-82
2023/01/03 01:57:08;;;;;;;14.13;5.97;;;3.60;94.80;;;;;;5044198;28;20044;-83
2023/01/03 01:59:33;;;;;;;20.30;6.90;;;3.50;94.80;;;;;;5043794;28;20549;-83
2023/01/03 02:01:59;;;;;;;12.93;6.90;;;3.40;94.70;;;;;;5043456;28;20024;-84
2023/01/03 02:04:29;;;;;;;13.18;6.40;;;3.40;94.70;;;;;;5028751;28;20037;-84
2023/01/03 02:06:56;;;;;;;15.23;6.70;;;3.30;94.80;;;;;;5027458;28;20076;-83
2023/01/03 02:09:22;;;;;;;12.50;6.57;;;3.30;94.80;;;;;;5046526;28;20036;-84
2023/01/03 02:15:08;;;;;;;20.50;7.23;;;3.20;94.80;;;;;;5046363;28;20571;-81
2023/01/03 02:17:39;;;;;;;19.57;7.57;;;3.20;94.80;;;;;;5025752;28;20126;-81
2023/01/03 02:20:41;;;;;;;19.03;7.37;;;3.10;94.80;;;;;;5026902;28;20053;-81
2023/01/03 02:23:44;;;;;;;17.93;7.27;;;3.10;94.90;;;;;;5042956;28;20049;-82
2023/01/03 02:26:47;;;;;;;17.20;7.83;;;3.10;94.90;;;;;;5031683;28;20060;-81
2023/01/03 02:29:52;;;;;;;21.43;8.10;;;3.00;94.90;;;;;;5043208;28;20079;-82
2023/01/03 02:32:33;;;;;;;19.43;8.23;;;3.00;94.90;;;;;;5047576;28;20037;-82
2023/01/03 02:35:18;;;;;;;15.23;8.20;;;3.10;95.00;;;;;;5033675;28;20101;-81
2023/01/03 02:38:20;;;;;;;17.90;8.50;;;3.10;95.20;;;;;;5058904;28;20037;-82
2023/01/03 02:40:55;;;;;;;20.13;8.63;;;3.20;95.20;;;;;;5046042;28;20052;-84
2023/01/03 02:43:39;;;;;;;19.13;8.50;;;3.20;95.20;;;;;;5046757;28;20484;-87
2023/01/03 02:46:15;;;;;;;20.00;9.37;;;3.20;95.20;;;;;;5066493;28;20048;-81
2023/01/03 02:49:13;;;;;;;24.47;9.27;;;3.20;95.20;;;;;;5051693;28;20055;-84
2023/01/03 02:51:48;;;;;;;21.35;9.35;;;3.20;95.10;;;;;;5006692;28;20067;-84
2023/01/03 02:54:27;;;;;;;21.13;9.80;;;3.30;95.10;;;;;;5059769;28;20047;-85
2023/01/03 02:57:21;;;;;;;21.92;9.40;;;3.30;95.10;;;;;;5044932;28;20078;-86
2023/01/03 02:59:58;;;;;;;17.73;9.30;;;3.20;95.10;;;;;;5037924;28;20100;-86
2023/01/03 03:02:31;;;;;;;21.43;10.10;;;3.20;95.10;;;;;;5041866;28;20035;-87
2023/01/03 03:04:59;;;;;;;18.97;10.57;;;3.20;95.00;;;;;;5062674;28;20040;-86
2023/01/03 03:07:34;;;;;;;20.85;10.52;;;3.20;95.00;;;;;;5030078;28;20480;-85
2023/01/03 03:15:46;;;;;;;28.27;11.63;;;3.00;95.10;;;;;;5038419;28;20090;-86
2023/01/03 03:18:36;;;;;;;28.57;11.23;;;3.00;95.20;;;;;;5040080;28;20060;-88
2023/01/03 03:26:39;;;;;;;24.90;11.77;;;2.80;95.30;;;;;;5059022;28;20045;-87
2023/01/03 03:29:13;;;;;;;26.07;11.47;;;2.80;95.30;;;;;;5044204;28;20040;-87
2023/01/03 03:31:42;;;;;;;29.97;12.73;;;2.80;95.40;;;;;;5039134;28;20182;-88
2023/01/03 03:34:22;;;;;;;29.63;11.85;;;2.70;95.40;;;;;;5057504;28;20127;-89
2023/01/03 03:37:01;;;;;;;26.63;12.97;;;2.60;95.40;;;;;;5040993;28;20787;-86
2023/01/03 03:45:30;;;;;;;30.50;13.88;;;2.60;95.60;;;;;;5041239;28;20084;-87
2023/01/03 03:48:04;;;;;;;32.53;14.73;;;2.60;95.60;;;;;;5044859;28;20048;-86
2023/01/03 03:50:39;;;;;;;32.03;14.37;;;2.60;95.70;;;;;;5045467;28;20075;-85
2023/01/03 03:53:08;;;;;;;35.17;14.57;;;2.50;95.70;;;;;;5041635;28;20040;-85
2023/01/03 03:56:17;;;;;;;31.73;15.50;;;2.50;95.70;;;;;;5031385;28;20135;-86
2023/01/03 03:58:48;;;;;;;36.13;15.27;;;2.50;95.80;;;;;;5014932;28;20068;-87
2023/01/03 04:01:18;;;;;;;35.73;15.80;;;2.50;95.80;;;;;;5059470;28;20147;-82
2023/01/03 04:03:45;;;;;;;32.53;15.87;;;2.60;96.00;;;;;;5045352;28;20490;-84
2023/01/03 04:06:16;;;;;;;;;;;2.60;96.00;;;;;;5046032;28;20496;-86
2023/01/03 04:08:41;;;;;;;38.00;16.33;;;2.60;96.20;;;;;;5030847;28;19974;-85
2023/01/03 04:11:07;;;;;;;35.53;15.20;;;2.70;96.10;;;;;;5062041;28;20040;-85
2023/01/03 04:13:35;;;;;;;34.03;15.67;;;2.70;96.00;;;;;;5046670;28;20040;-87
2023/01/03 04:16:01;;;;;;;38.50;16.90;;;2.80;96.00;;;;;;5043854;28;20044;-87
2023/01/03 04:18:27;;;;;;;41.40;16.07;;;2.80;95.90;;;;;;5046754;28;20119;-89
2023/01/03 04:20:52;;;;;;;32.87;15.10;;;2.80;95.90;;;;;;5024562;28;20079;-87
2023/01/03 04:23:18;;;;;;;40.37;17.23;;;2.80;96.00;;;;;;5061197;28;20119;-88
2023/01/03 04:25:43;;;;;;;34.43;16.07;;;2.90;95.90;;;;;;5046227;28;20037;-88
2023/01/03 04:28:09;;;;;;;39.47;17.70;;;2.90;95.90;;;;;;5023946;28;20488;-86
2023/01/03 04:30:35;;;;;;;41.70;17.17;;;2.90;95.90;;;;;;5043095;28;20090;-89
2023/01/03 04:33:04;;;;;;;41.67;17.60;;;3.00;96.00;;;;;;5042613;28;20227;-86
2023/01/03 04:35:30;;;;;;;;;;;3.10;95.90;;;;;;5042979;28;20040;-88
2023/01/03 04:37:56;;;;;;;36.73;16.83;;;3.00;96.00;;;;;;5026709;28;19931;-87
2023/01/03 04:40:21;;;;;;;43.03;17.33;;;3.00;96.00;;;;;;5029796;28;20052;-86
2023/01/03 04:45:33;;;;;;;41.00;18.60;;;3.10;95.80;;;;;;5007059;28;20040;-87
2023/01/03 04:47:59;;;;;;;40.10;17.97;;;3.10;95.80;;;;;;5045335;28;20048;-87
2023/01/03 04:50:25;;;;;;;38.53;18.00;;;3.10;95.80;;;;;;5035440;28;20515;-88
2023/01/03 04:52:50;;;;;;;40.50;18.60;;;3.10;95.80;;;;;;5041092;28;20080;-87
2023/01/03 04:55:16;;;;;;;42.87;18.10;;;3.20;95.80;;;;;;5045748;28;20768;-88
2023/01/03 04:57:42;;;;;;;38.57;17.97;;;3.20;95.80;;;;;;5030575;28;20135;-88
2023/01/03 05:00:08;;;;;;;36.80;18.53;;;3.20;95.80;;;;;;5043874;28;20037;-86
2023/01/03 05:02:34;;;;;;;37.03;17.80;;;3.20;95.70;;;;;;5030009;28;20070;-86
2023/01/03 05:04:59;;;;;;;32.30;17.70;;;3.20;95.70;;;;;;5042420;28;20045;-86
2023/01/03 05:07:28;;;;;;;37.17;17.40;;;3.20;95.70;;;;;;5038294;28;20048;-86
2023/01/03 05:09:54;;;;;;;;;;;3.20;95.70;;;;;;5046939;28;20628;-86
2023/01/03 05:12:20;;;;;;;39.87;18.17;;;3.30;95.80;;;;;;5029825;28;19920;-87
2023/01/03 05:14:45;;;;;;;39.27;18.63;;;3.30;95.70;;;;;;5043910;28;20589;-86
2023/01/03 05:17:11;;;;;;;40.53;18.63;;;3.30;95.70;;;;;;5028316;28;20538;-86
2023/01/03 05:27:49;;;;;;;48.60;20.00;;;3.40;95.60;;;;;;5044577;28;20044;-87
2023/01/03 05:30:15;;;;;;;39.07;18.13;;;3.40;95.50;;;;;;5042913;28;20721;-87
2023/01/03 05:32:40;;;;;;;41.43;19.77;;;3.40;95.50;;;;;;5048597;28;20040;-87
2023/01/03 05:35:06;;;;;;;39.73;18.83;;;3.40;95.40;;;;;;5046407;28;20056;-86
2023/01/03 05:37:32;;;;;;;41.40;19.77;;;3.40;95.40;;;;;;5046889;28;20128;-85
2023/01/03 05:39:57;;;;;;;39.07;19.70;;;3.40;95.40;;;;;;5048352;28;20055;-86
2023/01/03 05:42:23;;;;;;;37.37;18.67;;;3.50;95.40;;;;;;5047833;28;20389;-85
2023/01/03 05:44:48;;;;;;;43.50;19.30;;;3.50;95.40;;;;;;5065520;28;20040;-86
2023/01/03 05:47:14;;;;;;;40.17;18.87;;;3.50;95.30;;;;;;5049834;28;20040;-89
2023/01/03 05:49:39;;;;;;;34.47;19.07;;;3.50;95.30;;;;;;5049698;28;20632;-87
2023/01/03 05:52:05;;;;;;;39.57;18.67;;;3.50;95.20;;;;;;5060334;28;20072;-87
2023/01/03 05:54:30;;;;;;;39.77;19.00;;;3.50;95.20;;;;;;5048413;28;20036;-87
2023/01/03 05:56:56;;;;;;;43.57;20.03;;;3.50;95.20;;;;;;5046821;28;20137;-87
2023/01/03 05:59:22;;;;;;;40.87;19.30;;;3.50;95.10;;;;;;5048092;28;20047;-85
2023/01/03 06:01:48;;;;;;;39.88;18.73;;;3.50;95.10;;;;;;5045097;28;20114;-86
2023/01/03 06:04:13;;;;;;;35.17;18.70;;;3.50;94.90;;;;;;5031508;28;20059;-87
2023/01/03 06:06:39;;;;;;;38.63;19.35;;;3.50;94.90;;;;;;5063388;28;20036;-86
2023/01/03 06:09:04;;;;;;;39.17;18.93;;;3.50;94.90;;;;;;5043860;28;20105;-85
2023/01/03 06:11:30;;;;;;;42.88;19.02;;;3.50;94.90;;;;;;5031819;28;20427;-86
2023/01/03 06:13:56;;;;;;;40.20;19.93;;;3.40;94.90;;;;;;5047768;28;20059;-85
2023/01/03 06:19:06;;;;;;;42.23;20.13;;;3.30;94.80;;;;;;5043372;28;20532;-85
2023/01/03 06:21:33;;;;;;;39.57;19.57;;;3.30;94.70;;;;;;5041194;28;20086;-86
2023/01/03 06:23:58;;;;;;;38.90;18.47;;;3.20;94.80;;;;;;5047241;28;20546;-84
2023/01/03 06:26:25;;;;;;;46.00;19.97;;;3.10;94.80;;;;;;5068398;28;20064;-86
2023/01/03 06:28:51;;;;;;;42.30;19.67;;;3.00;94.80;;;;;;5042629;28;20077;-87
2023/01/03 06:31:17;;;;;;;41.60;18.83;;;3.00;94.80;;;;;;5047073;28;20590;-88
2023/01/03 06:33:43;;;;;;;42.80;20.07;;;2.90;94.90;;;;;;5048710;28;20050;-84
2023/01/03 06:36:11;;;;;;;44.27;19.77;;;2.90;94.90;;;;;;5046560;28;20106;-84
2023/01/03 06:38:38;;;;;;;42.72;18.77;;;2.90;95.00;;;;;;5049049;28;20125;-84
2023/01/03 06:41:03;;;;;;;44.67;21.57;;;2.80;94.90;;;;;;5045636;28;20044;-89
2023/01/03 06:43:29;;;;;;;43.73;20.40;;;2.70;94.90;;;;;;5045568;28;20392;-83
2023/01/03 06:54:29;;;;;;;39.60;19.37;;;2.50;95.00;;;;;;5038745;28;20052;-86
2023/01/03 06:56:55;;;;;;;45.67;19.47;;;2.50;95.10;;;;;;5020835;28;20504;-88
2023/01/03 06:59:21;;;;;;;40.30;19.93;;;2.50;95.20;;;;;;5038174;28;20118;-88
2023/01/03 07:01:49;;;;;;;40.00;20.30;;;2.50;95.20;;;;;;5035300;28;20052;-84
2023/01/03 07:04:16;;;;;;;37.80;20.35;;;2.50;95.20;;;;;;5042593;28;20076;-86
2023/01/03 07:06:41;;;;;;;41.57;19.93;;;2.50;95.20;;;;;;5043700;28;20836;-91
2023/01/03 07:09:08;;;;;;;41.13;20.27;;;2.50;95.20;;;;;;5058773;28;20040;-88
2023/01/03 07:11:35;;;;;;;39.37;20.67;;;2.40;95.20;;;;;;5042635;28;20397;-88
2023/01/03 07:14:02;;;;;;;40.73;20.57;;;2.40;95.20;;;;;;5041291;28;20052;-86
2023/01/03 07:16:54;;;;;;;40.17;21.10;;;2.30;95.20;;;;;;5040777;28;20044;-87
2023/01/03 07:19:19;;;;;;;47.73;21.60;;;2.30;95.20;;;;;;5037825;28;20048;-87
2023/01/03 07:25:42;;;;;;;50.15;21.67;;;2.30;95.30;;;;;;5054388;28;20106;-93
2023/01/03 07:28:16;;;;;;;44.97;22.43;;;2.20;95.30;;;;;;5048848;28;20059;-86
2023/01/03 08:03:38;;;;;;;40.37;22.37;;;2.10;95.50;;;;;;5098192;23;20119;-85
2023/01/03 08:56:30;;;;;;;63.17;20.17;;;1.90;95.40;;;;;;4807847;29;20050;-85
2023/01/03 08:59:07;;;;;;;64.27;21.00;;;1.90;95.50;;;;;;4803356;29;20148;-86
2023/01/03 09:05:09;;;;;;;87.40;20.77;;;1.90;95.60;;;;;;4803938;29;20058;-88
2023/01/03 09:07:43;;;;;;;61.23;20.50;;;1.80;95.60;;;;;;4812615;29;20129;-84
2023/01/03 09:10:10;;;;;;;87.30;20.50;;;1.80;95.80;;;;;;4811694;29;20038;-84
2023/01/03 09:12:39;;;;;;;82.20;20.10;;;1.80;95.80;;;;;;4810004;29;20095;-84
2023/01/03 09:27:37;;;;;;;211.33;29.83;;;1.90;96.40;;;;;;5037161;23;20058;-83
2023/01/03 09:30:03;;;;;;;268.37;29.90;;;2.00;96.80;;;;;;4826345;29;20398;-85
2023/01/03 09:32:29;;;;;;;209.90;27.47;;;2.10;97.00;;;;;;4804405;29;20054;-80
2023/01/03 09:34:55;;;;;;;285.23;31.37;;;2.10;97.10;;;;;;4827974;29;20074;-81
2023/01/03 09:37:20;;;;;;;348.30;33.67;;;2.20;97.20;;;;;;4830200;29;20153;-81
2023/01/03 09:39:46;;;;;;;323.70;33.00;;;2.30;97.30;;;;;;4827903;29;20108;-78
2023/01/03 09:45:10;;;;;;;277.37;33.60;;;2.40;97.50;;;;;;4829767;29;20061;-80
2023/01/03 09:47:37;;;;;;;360.43;36.37;;;2.50;97.60;;;;;;4826629;29;20065;-83
2023/01/03 09:50:05;;;;;;;332.90;36.30;;;2.50;97.80;;;;;;4825489;29;20050;-81
2023/01/03 10:04:27;;;;;;;349.73;41.27;;;3.00;98.40;;;;;;4826155;29;20039;-80
2023/01/03 10:07:21;;;;;;;240.20;39.27;;;3.20;98.60;;;;;;4826551;29;20038;-80
2023/01/03 10:10:11;;;;;;;239.23;40.10;;;3.30;98.60;;;;;;4829632;29;20046;-79
2023/01/03 10:12:57;;;;;;;189.43;36.07;;;3.40;98.60;;;;;;4827868;29;20050;-79
2023/01/03 10:15:28;;;;;;;252.03;40.50;;;3.50;98.70;;;;;;4828007;29;20082;-80
2023/01/03 10:18:13;;;;;;;187.47;39.00;;;3.50;98.70;;;;;;4827469;29;20058;-79
2023/01/03 10:20:50;;;;;;;157.20;37.33;;;3.60;98.70;;;;;;4828429;29;20470;-79
2023/01/03 10:23:17;;;;;;;155.33;38.50;;;3.70;98.70;;;;;;4830616;29;20054;-79
2023/01/03 10:25:45;;;;;;;170.33;38.47;;;3.70;98.70;;;;;;4826160;29;20049;-79
2023/01/03 10:28:19;;;;;;;161.50;39.33;;;3.80;98.70;;;;;;4825185;29;20725;-80
2023/01/03 10:30:47;;;;;;;154.77;39.03;;;3.90;98.60;;;;;;4826100;29;20045;-79
2023/01/03 10:33:34;;;;;;;146.40;38.15;;;4.00;98.60;;;;;;4822743;29;20097;-80
2023/01/03 10:36:00;;;;;;;156.67;39.83;;;4.10;98.60;;;;;;4825770;29;20050;-80
2023/01/03 10:38:27;;;;;;;131.87;38.43;;;4.10;98.50;;;;;;4810550;29;20062;-79
2023/01/03 10:40:58;;;;;;;130.73;38.83;;;4.20;98.90;;;;;;4811790;29;20102;-78
2023/01/03 10:43:44;;;;;;;123.97;36.30;;;4.20;98.50;;;;;;4825747;29;20049;-80
2023/01/03 10:46:20;;;;;;;118.83;38.20;;;4.30;98.40;;;;;;4830231;29;20065;-81
2023/01/03 10:48:48;;;;;;;123.13;39.03;;;4.40;98.30;;;;;;4829462;29;20085;-80
2023/01/03 10:51:30;;;;;;;130.43;40.75;;;4.50;98.30;;;;;;4829163;29;20049;-81
2023/01/03 10:53:57;;;;;;;121.63;39.55;;;4.50;98.30;;;;;;4813012;29;20054;-80
2023/01/03 10:56:25;;;;;;;121.00;39.75;;;4.60;98.20;;;;;;4831131;29;20579;-80
2023/01/03 10:59:14;;;;;;;97.07;36.42;;;4.60;98.00;;;;;;4833652;29;20054;-81
2023/01/03 11:02:06;;;;;;;95.97;36.55;;;4.70;97.90;;;;;;4830233;29;20046;-81
2023/01/03 11:04:32;;;;;;;108.38;38.38;;;4.70;98.20;;;;;;4827946;29;20042;-82
2023/01/03 11:07:07;;;;;;;94.88;36.08;;;4.70;98.10;;;;;;4827566;29;20050;-81
2023/01/03 11:09:45;;;;;;;104.60;36.53;;;4.80;97.80;;;;;;4811926;29;20085;-81
2023/01/03 11:12:28;;;;;;;98.47;37.90;;;4.80;97.70;;;;;;4828469;29;20399;-82
2023/01/03 11:14:55;;;;;;;92.32;35.78;;;4.90;97.60;;;;;;4832421;29;20062;-80
2023/01/03 11:17:24;;;;;;;93.25;35.75;;;5.00;97.60;;;;;;4831232;29;20046;-80
2023/01/03 11:19:50;;;;;;;84.70;33.92;;;5.10;97.50;;;;;;4813929;29;20056;-81
2023/01/03 11:22:25;;;;;;;85.38;37.78;;;5.20;97.10;;;;;;4831103;29;20045;-79
2023/01/03 11:25:14;;;;;;;75.18;34.33;;;5.20;97.00;;;;;;4822925;29;20452;-81
2023/01/03 11:28:01;;;;;;;76.72;32.20;;;5.20;96.70;;;;;;4833298;29;20042;-81
2023/01/03 11:30:52;;;;;;;75.43;31.98;;;5.20;96.70;;;;;;4828655;29;20054;-80
2023/01/03 11:33:40;;;;;;;77.43;31.88;;;5.30;96.70;;;;;;4831844;29;20608;-81
2023/01/03 11:36:12;;;;;;;73.38;33.17;;;5.30;96.60;;;;;;4830746;29;20145;-81
2023/01/03 11:39:07;;;;;;;75.20;33.05;;;5.40;96.50;;;;;;4817323;29;20042;-81
2023/01/03 11:41:39;;;;;;;71.65;31.67;;;5.40;96.50;;;;;;4829514;29;20510;-82
2023/01/03 11:44:39;;;;;;;78.15;33.05;;;5.40;96.40;;;;;;4829122;29;20045;-81
2023/01/03 11:47:29;;;;;;;71.30;32.22;;;5.50;96.40;;;;;;4812796;29;20070;-81
2023/01/03 11:50:02;;;;;;;63.17;30.55;;;5.60;96.30;;;;;;4829242;29;20088;-81
2023/01/03 11:52:49;;;;;;;60.03;31.05;;;5.60;96.20;;;;;;4814853;29;20738;-82
2023/01/03 11:55:33;;;;;;;69.63;32.37;;;5.60;96.20;;;;;;4808807;29;20046;-81
2023/01/03 11:58:15;;;;;;;73.22;31.38;;;5.70;96.20;;;;;;4810278;29;20068;-81
2023/01/03 12:01:10;;;;;;;71.70;32.00;;;5.70;96.10;;;;;;4825272;29;20217;-81
2023/01/03 12:03:54;;;;;;;66.40;32.78;;;5.70;96.10;;;;;;4827249;29;20045;-82
2023/01/03 12:06:31;;;;;;;68.55;30.17;;;5.80;96.10;;;;;;4816950;29;20049;-81
2023/01/03 12:09:19;;;;;;;68.22;31.17;;;5.80;96.10;;;;;;4814079;29;20067;-81
2023/01/03 12:11:51;;;;;;;65.95;31.42;;;5.80;96.10;;;;;;4825401;29;20533;-81
2023/01/03 12:14:29;;;;;;;69.85;31.17;;;5.80;96.10;;;;;;4828743;29;20052;-80
2023/01/03 12:17:17;;;;;;;59.83;30.85;;;5.80;96.10;;;;;;4832285;29;20066;-80
2023/01/03 12:19:56;;;;;;;58.65;30.42;;;5.90;96.10;;;;;;4824345;29;20462;-80
2023/01/03 12:22:43;;;;;;;64.00;30.67;;;5.90;96.10;;;;;;4807620;29;20038;-81
2023/01/03 12:25:21;;;;;;;67.13;31.05;;;5.90;96.10;;;;;;4831807;29;20060;-82
2023/01/03 12:28:09;;;;;;;65.57;31.42;;;5.90;96.10;;;;;;4828189;29;20149;-83
2023/01/03 12:30:56;;;;;;;72.23;30.53;;;5.90;96.10;;;;;;4836211;29;20394;-81
2023/01/03 12:33:33;;;;;;;61.23;29.67;;;5.90;96.10;;;;;;4810924;29;20133;-82
2023/01/03 12:36:21;;;;;;;62.05;30.17;;;5.90;96.20;;;;;;4830366;29;20358;-79
2023/01/03 12:39:00;;;;;;;63.30;28.35;;;5.90;96.20;;;;;;4830175;29;20057;-81
2023/01/03 12:41:49;;;;;;;53.85;28.70;;;5.90;96.20;;;;;;4836832;29;20034;-82
2023/01/03 12:44:24;;;;;;;57.72;27.80;;;6.00;96.20;;;;;;4835620;29;20050;-81
2023/01/03 12:46:53;;;;;;;57.50;27.42;;;6.00;96.20;;;;;;4825591;29;20050;-80
2023/01/03 12:49:23;;;;;;;56.47;26.92;;;6.00;96.20;;;;;;4835027;29;20057;-82
2023/01/03 12:51:49;;;;;;;55.25;28.15;;;6.00;96.20;;;;;;4834464;29;20045;-81
2023/01/03 12:54:28;;;;;;;52.47;26.67;;;6.10;96.20;;;;;;4833644;29;20054;-80
2023/01/03 12:57:01;;;;;;;52.33;26.45;;;6.10;96.10;;;;;;4830449;29;20045;-80
2023/01/03 13:00:09;;;;;;;55.20;25.65;;;6.10;96.10;;;;;;4815982;29;20046;-77
2023/01/03 13:02:56;;;;;;;;;;;6.20;96.20;;;;;;4830487;29;20046;-81
2023/01/03 13:05:35;;;;;;;52.65;24.77;;;6.20;96.20;;;;;;4810185;29;19986;-83
2023/01/03 13:08:26;;;;;;;51.90;24.58;;;6.20;96.20;;;;;;4817429;29;20578;-82
2023/01/03 13:10:55;;;;;;;51.55;24.70;;;6.20;96.20;;;;;;4829469;29;20098;-78
2023/01/03 13:13:21;;;;;;;49.63;23.80;;;6.20;96.30;;;;;;4843045;29;20521;-82
2023/01/03 13:15:47;;;;;;;48.63;22.90;;;6.20;96.30;;;;;;4825943;29;20049;-83
2023/01/03 13:18:17;;;;;;;48.10;23.70;;;6.30;96.30;;;;;;4809839;29;20041;-81
2023/01/03 13:20:46;;;;;;;41.00;21.65;;;6.20;96.30;;;;;;4811143;29;20045;-80
2023/01/03 13:23:34;;;;;;;46.25;22.45;;;6.30;96.40;;;;;;4811741;29;20091;-80
2023/01/03 13:26:05;;;;;;;48.63;20.98;;;6.30;96.40;;;;;;4828020;29;20054;-80
2023/01/03 13:28:36;;;;;;;48.95;21.13;;;6.30;96.40;;;;;;4828732;29;20062;-77
2023/01/03 13:31:15;;;;;;;44.17;20.60;;;6.30;96.40;;;;;;4812430;29;20092;-79
2023/01/03 13:33:47;;;;;;;45.15;21.45;;;6.30;96.50;;;;;;4825922;29;20052;-80
2023/01/03 13:36:14;;;;;;;39.30;19.55;;;6.40;96.50;;;;;;4833886;29;20045;-80
2023/01/03 13:38:45;;;;;;;44.60;20.67;;;6.40;96.40;;;;;;4827903;29;20052;-76
2023/01/03 13:41:40;;;;;;;38.80;19.27;;;6.40;96.40;;;;;;4827390;29;20464;-79
2023/01/03 13:44:23;;;;;;;45.08;19.33;;;6.40;96.40;;;;;;4821304;29;20246;-82
2023/01/03 13:46:50;;;;;;;36.85;18.80;;;6.40;96.40;;;;;;4826140;29;20058;-81
2023/01/03 13:49:22;;;;;;;39.28;18.73;;;6.50;96.40;;;;;;4826404;29;20133;-81
2023/01/03 13:51:53;;;;;;;38.05;18.17;;;6.50;96.30;;;;;;4826553;29;20426;-79
2023/01/03 13:54:19;;;;;;;38.35;19.17;;;6.50;96.20;;;;;;4824512;29;20283;-81
2023/01/03 13:56:44;;;;;;;42.90;20.02;;;6.50;96.20;;;;;;4826438;29;20511;-78
2023/01/03 13:59:13;;;;;;;47.15;20.42;;;6.60;96.20;;;;;;4826017;29;20467;-80
2023/01/03 14:02:00;;;;;;;40.75;19.70;;;6.60;96.20;;;;;;4826377;29;20058;-82
2023/01/03 14:04:59;;;;;;;36.97;19.33;;;6.60;96.10;;;;;;4825549;29;20448;-80
2023/01/03 14:07:37;;;;;;;37.58;19.40;;;6.60;96.10;;;;;;4822381;29;20050;-80
2023/01/03 14:10:31;;;;;;;40.90;19.58;;;6.60;96.20;;;;;;4811817;29;20086;-79
2023/01/03 14:13:17;;;;;;;43.40;21.02;;;6.60;96.10;;;;;;4809890;29;20857;-80
2023/01/03 14:15:44;;;;;;;45.33;19.50;;;6.60;96.20;;;;;;4823137;29;20045;-81
2023/01/03 14:18:13;;;;;;;42.08;20.10;;;6.60;96.20;;;;;;4826169;29;21540;-82
2023/01/03 14:20:44;;;;;;;42.75;21.17;;;6.60;96.20;;;;;;4818457;29;20050;-80
2023/01/03 14:23:12;;;;;;;37.35;19.40;;;6.60;96.20;;;;;;4829919;29;20121;-81
2023/01/03 14:25:43;;;;;;;48.80;21.00;;;6.60;96.20;;;;;;4828025;29;20077;-81
2023/01/03 14:28:39;;;;;;;36.72;19.88;;;6.60;96.20;;;;;;4829246;29;20094;-80
2023/01/03 14:31:15;;;;;;;45.78;19.83;;;6.60;96.20;;;;;;4826775;29;20053;-81
2023/01/03 14:33:46;;;;;;;34.65;18.52;;;6.70;96.10;;;;;;4831622;29;20373;-80
2023/01/03 14:36:12;;;;;;;36.25;18.10;;;6.70;96.10;;;;;;4829815;29;20058;-81
2023/01/03 14:38:44;;;;;;;29.45;16.58;;;6.70;96.10;;;;;;4832103;29;20074;-81
2023/01/03 14:41:28;;;;;;;34.22;18.25;;;6.70;96.00;;;;;;4832654;29;20577;-80
2023/01/03 14:44:16;;;;;;;39.33;17.35;;;6.80;95.90;;;;;;4835998;29;20060;-81
2023/01/03 14:46:52;;;;;;;31.15;17.25;;;6.80;95.90;;;;;;4814084;29;20491;-82
2023/01/03 14:49:34;;;;;;;29.02;17.25;;;6.80;95.90;;;;;;4830573;29;20174;-83
2023/01/03 14:52:17;;;;;;;26.65;15.93;;;6.80;95.80;;;;;;4829503;29;20164;-81
2023/01/03 14:54:47;;;;;;;30.05;16.85;;;6.80;95.80;;;;;;4831648;29;20331;-80
2023/01/03 14:57:36;;;;;;;33.25;17.65;;;6.90;95.80;;;;;;4833126;29;20106;-80
2023/01/03 15:00:02;;;;;;;;;;;6.90;95.80;;;;;;4813043;29;20046;-76
2023/01/03 15:02:34;;;;;;;36.10;16.67;;;6.90;95.60;;;;;;4832636;29;19924;-76
2023/01/03 15:05:01;;;;;;;30.42;16.70;;;7.00;95.70;;;;;;4829481;29;20542;-77
2023/01/03 15:07:42;;;;;;;30.35;16.13;;;6.90;95.60;;;;;;4816926;29;20068;-78
2023/01/03 15:10:10;;;;;;;31.27;17.45;;;7.00;95.60;;;;;;4826367;29;20057;-75
2023/01/03 15:12:39;;;;;;;37.80;16.60;;;7.00;95.60;;;;;;4821598;29;20570;-76
2023/01/03 15:15:16;;;;;;;;;;;7.00;95.60;;;;;;4831056;29;20093;-78
2023/01/03 15:17:43;;;;;;;25.50;14.85;;;7.00;95.40;;;;;;4832265;29;19929;-74
2023/01/03 15:20:09;;;;;;;29.17;16.38;;;7.00;95.50;;;;;;4832490;29;20081;-78
2023/01/03 15:22:39;;;;;;;28.27;16.08;;;7.00;95.40;;;;;;4825415;29;20173;-79
2023/01/03 15:25:36;;;;;;;32.38;16.52;;;7.10;95.40;;;;;;4829707;29;20049;-77
2023/01/03 15:28:30;;;;;;;28.25;15.73;;;7.00;95.40;;;;;;4833709;29;20118;-78
2023/01/03 15:31:11;;;;;;;27.65;16.23;;;7.10;95.40;;;;;;4826111;29;20483;-79
2023/01/03 15:33:36;;;;;;;29.13;15.88;;;7.00;95.50;;;;;;4832662;29;20106;-79
2023/01/03 15:36:12;;;;;;;31.67;16.40;;;7.00;95.40;;;;;;4830295;29;20507;-78
2023/01/03 15:38:43;;;;;;;31.33;16.08;;;7.00;95.40;;;;;;4829545;29;20503;-77
2023/01/03 15:44:17;;;;;;;28.20;15.07;;;7.10;95.40;;;;;;4830435;29;20080;-80
2023/01/03 15:46:48;;;;;;;27.80;15.45;;;7.10;95.40;;;;;;4830122;29;20163;-79
2023/01/03 15:49:20;;;;;;;27.33;15.85;;;7.10;95.40;;;;;;4834287;29;20084;-76
2023/01/03 15:51:47;;;;;;;22.75;14.27;;;7.10;95.40;;;;;;4809790;29;20049;-78
2023/01/03 15:54:17;;;;;;;25.25;15.27;;;7.10;95.40;;;;;;4827925;29;20081;-79
2023/01/03 15:56:58;;;;;;;27.08;14.80;;;7.10;95.30;;;;;;4829963;29;20046;-80